Time;durP1;ratioP1;P1;durP2;ratioP2;P2;SDS_P1;SDS_P2;PMS_P1;PMS_P2;Temp;Humidity;BMP_temperature;BMP_pressure;BME280_temperature;BME280_humidity;BME280_pressure;Samples;Min_cycle;Max_cycle;Signal;HPM_P1;HPM_P2
2024/02/29 00:00:59;;;;;;;28.65;17.05;;;;;;;6.78;73.28;96977.06;4937716;29;20142;-77
2024/02/29 00:03:27;;;;;;;27.90;16.98;;;;;;;6.81;72.06;96968.97;4937768;29;20480;-78
2024/02/29 00:05:54;;;;;;;27.65;17.40;;;;;;;6.80;70.99;96959.59;4937472;29;20472;-78
2024/02/29 00:08:22;;;;;;;28.58;18.55;;;;;;;6.78;71.08;96963.28;4937684;29;20056;-78
2024/02/29 00:10:50;;;;;;;30.98;18.45;;;;;;;6.76;70.77;96960.03;4937470;29;20468;-77
2024/02/29 00:13:17;;;;;;;34.40;19.65;;;;;;;6.75;70.73;96955.78;4937643;29;20051;-77
2024/02/29 00:15:46;;;;;;;31.35;19.08;;;;;;;6.75;72.18;96951.41;4937391;29;20078;-78
2024/02/29 00:18:14;;;;;;;30.85;18.67;;;;;;;6.78;71.94;96939.97;4936240;29;20508;-78
2024/02/29 00:20:41;;;;;;;30.50;17.70;;;;;;;6.78;72.16;96948.53;4937343;29;20196;-78
2024/02/29 00:23:09;;;;;;;29.83;19.17;;;;;;;6.84;74.05;96944.53;4937248;29;20539;-78
2024/02/29 00:25:36;;;;;;;29.23;17.55;;;;;;;6.92;74.96;96943.78;4937367;29;20083;-78
2024/02/29 00:28:04;;;;;;;29.88;17.73;;;;;;;6.91;73.15;96945.56;4937405;29;20052;-78
2024/02/29 00:30:32;;;;;;;29.52;17.77;;;;;;;6.89;72.42;96938.91;4937519;29;20047;-78
2024/02/29 00:33:03;;;;;;;23.70;15.80;;;;;;;6.87;73.45;96936.47;4937295;29;20489;-77
2024/02/29 00:35:31;;;;;;;31.30;19.23;;;;;;;6.85;71.91;96935.78;4937050;29;20055;-78
2024/02/29 00:37:59;;;;;;;28.77;18.63;;;;;;;6.76;70.96;96931.50;4937233;29;20138;-78
2024/02/29 00:40:26;;;;;;;30.92;18.92;;;;;;;6.71;71.08;96933.72;4936672;29;20094;-78
2024/02/29 00:42:54;;;;;;;30.73;17.83;;;;;;;6.64;70.76;96928.31;4937073;29;20134;-78
2024/02/29 00:45:21;;;;;;;34.05;20.27;;;;;;;6.56;71.04;96921.28;4937253;29;20066;-77
2024/02/29 00:47:49;;;;;;;27.00;16.73;;;;;;;6.47;71.28;96927.38;4936971;29;20115;-78
2024/02/29 00:50:18;;;;;;;28.17;16.98;;;;;;;6.40;71.46;96916.75;4937074;29;20072;-78
2024/02/29 00:52:46;;;;;;;27.42;16.90;;;;;;;6.34;71.37;96921.72;4937035;29;20055;-78
2024/02/29 00:55:14;;;;;;;30.67;19.27;;;;;;;6.26;71.49;96921.66;4936801;29;20083;-77
2024/02/29 00:57:42;;;;;;;30.25;18.30;;;;;;;6.17;71.79;96916.38;4937086;29;20047;-77
2024/02/29 01:00:11;;;;;;;31.50;18.77;;;;;;;6.11;72.05;96919.56;4955835;23;20056;-79
2024/02/29 01:02:39;;;;;;;30.70;18.63;;;;;;;6.07;71.63;96920.00;4898305;29;20059;-78
2024/02/29 01:05:08;;;;;;;30.92;16.85;;;;;;;6.01;72.15;96918.78;4898241;29;20063;-78
2024/02/29 01:07:38;;;;;;;29.40;18.52;;;;;;;6.00;72.06;96924.94;4898434;29;20060;-78
2024/02/29 01:10:07;;;;;;;28.52;18.52;;;;;;;5.95;72.10;96921.97;4898391;29;20067;-78
2024/02/29 01:12:39;;;;;;;29.42;16.98;;;;;;;5.97;73.34;96927.81;4899751;29;20493;-78
2024/02/29 01:15:08;;;;;;;30.80;18.40;;;;;;;6.04;74.03;96922.88;4898861;29;20148;-78
2024/02/29 01:17:36;;;;;;;33.95;19.25;;;;;;;6.06;74.23;96923.56;4898770;29;20127;-78
2024/02/29 01:20:05;;;;;;;31.33;17.88;;;;;;;6.05;73.10;96927.09;4898620;29;20053;-78
2024/02/29 01:22:33;;;;;;;30.02;18.70;;;;;;;5.99;73.67;96923.28;4898407;29;20048;-78
2024/02/29 01:25:02;;;;;;;31.77;18.45;;;;;;;5.95;74.16;96911.63;4898115;29;20060;-78
2024/02/29 01:27:30;;;;;;;31.83;18.27;;;;;;;5.92;74.03;96907.50;4898330;29;20526;-78
2024/02/29 01:29:57;;;;;;;34.67;21.38;;;;;;;5.92;74.81;96904.09;4899511;29;20059;-79
2024/02/29 01:32:25;;;;;;;35.13;19.83;;;;;;;5.90;74.09;96911.19;4898996;29;20144;-78
2024/02/29 01:34:56;;;;;;;33.05;19.50;;;;;;;5.86;74.50;96902.91;4898033;29;20048;-78
2024/02/29 01:37:24;;;;;;;36.55;21.05;;;;;;;5.84;74.22;96889.31;4898104;29;20323;-78
2024/02/29 01:39:51;;;;;;;40.90;23.15;;;;;;;5.81;73.29;96893.94;4898206;29;20421;-78
2024/02/29 01:42:20;;;;;;;34.00;20.55;;;;;;;5.80;74.12;96890.53;4898046;29;20053;-78
2024/02/29 01:44:54;;;;;;;38.40;19.70;;;;;;;5.76;74.25;96882.25;4898082;29;20499;-78
2024/02/29 01:47:22;;;;;;;35.67;20.52;;;;;;;5.78;74.52;96879.53;4898664;29;20060;-78
2024/02/29 01:49:50;;;;;;;38.00;21.48;;;;;;;5.77;74.75;96876.13;4913670;29;20176;-78
2024/02/29 01:52:20;;;;;;;35.03;19.38;;;;;;;5.76;74.42;96877.06;4897789;29;20060;-79
2024/02/29 01:54:48;;;;;;;39.03;21.58;;;;;;;5.77;75.34;96867.50;4897919;29;20091;-78
2024/02/29 01:57:16;;;;;;;40.25;22.25;;;;;;;5.77;75.15;96868.34;4897962;29;20056;-78
2024/02/29 01:59:47;;;;;;;41.25;22.10;;;;;;;5.75;76.00;96865.09;4897752;29;20108;-78
2024/02/29 02:02:15;;;;;;;40.33;22.05;;;;;;;5.74;76.78;96867.81;4897848;29;20059;-78
2024/02/29 02:04:42;;;;;;;42.35;23.13;;;;;;;5.74;76.10;96865.22;4897874;29;20543;-78
2024/02/29 02:07:10;;;;;;;41.22;23.73;;;;;;;5.67;75.55;96866.78;4898079;29;20076;-78
2024/02/29 02:09:41;;;;;;;40.63;22.70;;;;;;;5.59;75.58;96864.88;4897620;29;20056;-78
2024/02/29 02:12:10;;;;;;;45.92;25.05;;;;;;;5.53;75.92;96861.13;4897648;29;20135;-78
2024/02/29 02:14:38;;;;;;;45.47;22.95;;;;;;;5.53;75.82;96860.28;4897412;29;20056;-78
2024/02/29 02:17:09;;;;;;;45.20;23.05;;;;;;;5.56;77.41;96860.03;4897827;29;20137;-78
2024/02/29 02:19:39;;;;;;;44.13;23.45;;;;;;;5.57;76.56;96862.47;4898268;29;20062;-78
2024/02/29 02:22:08;;;;;;;40.55;23.90;;;;;;;5.54;76.40;96859.34;4907901;29;20163;-79
2024/02/29 02:24:36;;;;;;;44.53;25.85;;;;;;;5.56;77.02;96860.03;4907860;29;20053;-78
2024/02/29 02:27:04;;;;;;;45.13;23.40;;;;;;;5.54;77.03;96851.59;4898176;29;20531;-78
2024/02/29 02:29:31;;;;;;;44.38;23.95;;;;;;;5.53;76.33;96855.94;4897619;29;20084;-78
2024/02/29 02:31:59;;;;;;;44.13;23.50;;;;;;;5.52;76.06;96846.53;4897364;29;20059;-78
2024/02/29 02:34:26;;;;;;;39.75;23.45;;;;;;;5.50;75.64;96845.06;4897465;29;20055;-78
2024/02/29 02:36:54;;;;;;;44.33;24.33;;;;;;;5.53;76.35;96844.75;4897459;29;20087;-78
2024/02/29 02:39:23;;;;;;;43.13;24.23;;;;;;;5.55;76.56;96837.66;4897719;29;20100;-78
2024/02/29 02:41:51;;;;;;;43.92;23.30;;;;;;;5.59;75.93;96844.19;4900598;29;20084;-78
2024/02/29 02:44:18;;;;;;;49.17;27.63;;;;;;;5.62;75.95;96841.34;4901578;29;20532;-78
2024/02/29 02:46:46;;;;;;;45.15;24.30;;;;;;;5.63;76.26;96837.78;4901416;29;20137;-78
2024/02/29 02:49:14;;;;;;;46.15;26.30;;;;;;;5.66;76.80;96834.88;4901155;29;20076;-78
2024/02/29 02:51:41;;;;;;;50.33;25.95;;;;;;;5.68;77.25;96827.78;4901184;29;20059;-78
2024/02/29 02:54:09;;;;;;;44.50;24.58;;;;;;;5.71;77.27;96835.28;4901126;29;20057;-78
2024/02/29 02:56:38;;;;;;;47.13;25.10;;;;;;;5.69;75.74;96828.63;4900800;29;20111;-78
2024/02/29 02:59:05;;;;;;;47.55;25.33;;;;;;;5.57;75.93;96821.06;4901088;29;20112;-78
2024/02/29 03:01:33;;;;;;;47.65;26.48;;;;;;;5.52;76.17;96812.91;4900815;29;20076;-78
2024/02/29 03:04:01;;;;;;;47.15;24.70;;;;;;;5.50;75.84;96814.00;4901241;29;20049;-78
2024/02/29 03:06:28;;;;;;;47.40;24.83;;;;;;;5.44;75.99;96809.41;4916177;29;20049;-78
2024/02/29 03:08:56;;;;;;;46.35;24.70;;;;;;;5.39;76.71;96806.44;4902119;29;20055;-79
2024/02/29 03:11:23;;;;;;;44.95;25.40;;;;;;;5.32;76.34;96806.22;4903024;29;20068;-78
2024/02/29 03:13:53;;;;;;;54.15;27.13;;;;;;;5.26;76.64;96810.19;4900876;29;20137;-78
2024/02/29 03:16:22;;;;;;;48.67;25.85;;;;;;;5.24;77.08;96814.66;4901055;29;20048;-78
2024/02/29 03:18:50;;;;;;;49.00;26.10;;;;;;;5.25;77.29;96815.50;4900804;29;20105;-78
2024/02/29 03:21:17;;;;;;;54.58;27.55;;;;;;;5.27;76.73;96808.41;4900802;29;20501;-78
2024/02/29 03:23:45;;;;;;;47.88;25.25;;;;;;;5.31;77.30;96807.16;4900373;29;20084;-78
2024/02/29 03:26:12;;;;;;;47.50;25.95;;;;;;;5.31;76.64;96808.00;4900583;29;20152;-78
2024/02/29 03:28:40;;;;;;;53.17;27.17;;;;;;;5.27;76.49;96800.63;4900793;29;20093;-78
2024/02/29 03:31:11;;;;;;;49.55;26.83;;;;;;;5.25;76.33;96800.00;4900555;29;20052;-78
2024/02/29 03:33:39;;;;;;;53.50;27.23;;;;;;;5.24;76.07;96800.94;4900336;29;20433;-78
2024/02/29 03:36:07;;;;;;;51.30;26.98;;;;;;;5.25;76.37;96792.22;4917018;29;20041;-78
2024/02/29 03:38:36;;;;;;;49.42;26.00;;;;;;;5.23;76.94;96788.97;4922997;29;20086;-78
2024/02/29 03:41:06;;;;;;;49.40;27.20;;;;;;;5.26;77.20;96786.91;4923210;29;20116;-78
2024/02/29 03:43:35;;;;;;;54.67;27.52;;;;;;;5.29;77.99;96781.44;4917637;29;20096;-78
2024/02/29 03:46:02;;;;;;;52.90;28.27;;;;;;;5.35;78.08;96774.88;4900575;29;20414;-78
2024/02/29 03:48:31;;;;;;;52.03;26.95;;;;;;;5.34;77.12;96774.06;4900218;29;20505;-78
2024/02/29 03:50:59;;;;;;;54.28;28.25;;;;;;;5.35;76.70;96780.84;4899534;29;20052;-78
2024/02/29 03:53:27;;;;;;;56.80;28.80;;;;;;;5.40;78.16;96777.03;4899951;29;20121;-78
2024/02/29 03:55:55;;;;;;;56.08;29.63;;;;;;;5.45;77.41;96767.06;4900112;29;20092;-78
2024/02/29 03:58:23;;;;;;;52.55;28.65;;;;;;;5.47;76.69;96770.31;4899933;29;20044;-78
2024/02/29 04:00:51;;;;;;;55.08;28.10;;;;;;;5.46;76.02;96776.44;4899896;29;20068;-78
2024/02/29 04:03:19;;;;;;;52.30;27.20;;;;;;;5.40;76.31;96775.28;4899662;29;20060;-78
2024/02/29 04:05:47;;;;;;;53.88;28.58;;;;;;;5.42;77.23;96780.28;4900083;29;20124;-78
2024/02/29 04:08:15;;;;;;;54.78;27.90;;;;;;;5.49;77.02;96776.19;4900129;29;20056;-78
2024/02/29 04:10:46;;;;;;;48.55;27.83;;;;;;;5.55;77.27;96778.16;4899863;29;20048;-78
2024/02/29 04:13:13;;;;;;;47.58;27.02;;;;;;;5.59;77.56;96776.91;4900135;29;20100;-78
2024/02/29 04:15:41;;;;;;;51.13;26.75;;;;;;;5.62;77.18;96781.81;4899510;29;20053;-78
2024/02/29 04:18:09;;;;;;;50.53;26.45;;;;;;;5.68;77.24;96772.63;4899725;29;20056;-78
2024/02/29 04:20:36;;;;;;;51.72;29.10;;;;;;;5.70;76.44;96778.47;4899917;29;20049;-78
2024/02/29 04:23:05;;;;;;;49.45;25.75;;;;;;;5.69;77.69;96777.66;4899552;29;20057;-79
2024/02/29 04:25:33;;;;;;;52.22;28.08;;;;;;;5.71;76.67;96775.75;4899366;29;20140;-78
2024/02/29 04:28:00;;;;;;;54.63;27.70;;;;;;;5.67;76.13;96774.41;4899435;29;20104;-78
2024/02/29 04:30:29;;;;;;;50.45;26.42;;;;;;;5.64;75.58;96766.94;4899275;29;20071;-78
2024/02/29 04:32:57;;;;;;;52.25;26.63;;;;;;;5.62;75.55;96768.88;4900031;29;20143;-78
2024/02/29 04:35:24;;;;;;;53.13;27.83;;;;;;;5.63;77.22;96770.47;4899528;29;20414;-78
2024/02/29 04:37:52;;;;;;;50.42;28.08;;;;;;;5.67;77.24;96769.25;4899530;29;20091;-78
2024/02/29 04:40:21;;;;;;;49.10;25.65;;;;;;;5.64;76.39;96768.69;4899235;29;20044;-78
2024/02/29 04:42:49;;;;;;;54.88;28.80;;;;;;;5.60;75.66;96769.94;4899171;29;20056;-78
2024/02/29 04:45:16;;;;;;;59.05;29.42;;;;;;;5.54;75.88;96759.25;4898761;29;20533;-78
2024/02/29 04:47:44;;;;;;;55.00;28.58;;;;;;;5.53;76.84;96761.97;4899081;29;20084;-78
2024/02/29 04:50:11;;;;;;;53.30;28.95;;;;;;;5.50;76.21;96757.91;4898909;29;20584;-78
2024/02/29 04:52:39;;;;;;;55.45;28.88;;;;;;;5.46;75.91;96758.34;4899204;29;20108;-78
2024/02/29 04:55:07;;;;;;;51.80;28.58;;;;;;;5.40;75.75;96764.09;4898661;29;20250;-78
2024/02/29 04:57:36;;;;;;;56.72;29.10;;;;;;;5.36;76.01;96766.97;4899266;29;20048;-78
2024/02/29 05:00:06;;;;;;;53.92;29.05;;;;;;;5.34;76.16;96763.72;4916898;29;20059;-78
2024/02/29 05:02:33;;;;;;;55.55;30.65;;;;;;;5.34;75.76;96762.91;4898863;29;20084;-78
2024/02/29 05:05:01;;;;;;;59.70;30.05;;;;;;;5.31;76.54;96764.03;4898224;29;20108;-78
2024/02/29 05:07:29;;;;;;;60.47;31.33;;;;;;;5.27;76.33;96765.25;4898939;29;20064;-78
2024/02/29 05:09:56;;;;;;;60.28;30.75;;;;;;;5.27;77.78;96762.69;4898681;29;20048;-78
2024/02/29 05:12:26;;;;;;;55.35;28.80;;;;;;;5.28;77.24;96753.94;4898694;29;20060;-78
2024/02/29 05:14:55;;;;;;;59.58;30.60;;;;;;;5.27;76.53;96752.34;4914524;29;20085;-78
2024/02/29 05:17:23;;;;;;;60.03;31.48;;;;;;;5.24;76.61;96757.78;4900894;29;20056;-78
2024/02/29 05:19:51;;;;;;;58.35;31.77;;;;;;;5.21;77.24;96745.16;4898835;29;20076;-78
2024/02/29 05:22:19;;;;;;;56.35;31.27;;;;;;;5.18;76.88;96740.25;4900049;29;20059;-78
2024/02/29 05:24:46;;;;;;;53.42;29.52;;;;;;;5.15;77.08;96737.97;4918670;29;20084;-78
2024/02/29 05:27:14;;;;;;;59.10;31.77;;;;;;;5.13;77.30;96732.13;4908344;29;20413;-78
2024/02/29 05:29:42;;;;;;;55.55;29.30;;;;;;;5.11;76.62;96731.44;4899678;29;20049;-78
2024/02/29 05:32:11;;;;;;;55.92;29.60;;;;;;;5.05;76.78;96726.84;4899124;29;20076;-78
2024/02/29 05:34:42;;;;;;;57.20;30.63;;;;;;;4.97;76.49;96726.75;4902740;29;20056;-78
2024/02/29 05:37:09;;;;;;;54.08;29.60;;;;;;;4.93;76.30;96734.78;4910810;29;20501;-79
2024/02/29 05:39:37;;;;;;;55.70;28.48;;;;;;;4.87;76.62;96734.53;4911833;29;20553;-78
2024/02/29 05:42:05;;;;;;;51.80;26.80;;;;;;;4.85;77.14;96736.47;4901443;29;20052;-79
2024/02/29 05:44:33;;;;;;;55.55;29.42;;;;;;;4.86;76.93;96732.94;4899446;29;20077;-78
2024/02/29 05:47:00;;;;;;;52.33;27.17;;;;;;;4.90;77.93;96729.13;4898565;29;20075;-78
2024/02/29 05:49:29;;;;;;;52.22;28.05;;;;;;;4.97;77.93;96719.00;4898303;29;20053;-78
2024/02/29 05:51:56;;;;;;;58.05;29.23;;;;;;;5.02;77.04;96719.38;4898463;29;20143;-78
2024/02/29 05:54:24;;;;;;;52.72;29.27;;;;;;;5.06;77.39;96720.72;4898775;29;20052;-78
2024/02/29 05:56:52;;;;;;;54.38;29.75;;;;;;;5.10;77.15;96720.28;4897983;29;20103;-78
2024/02/29 05:59:19;;;;;;;58.03;28.95;;;;;;;5.11;76.27;96721.91;4898505;29;20056;-78
2024/02/29 06:01:47;;;;;;;57.25;30.15;;;;;;;5.13;76.67;96714.00;4898340;29;20053;-78
2024/02/29 06:04:15;;;;;;;54.88;27.65;;;;;;;5.12;76.42;96720.16;4898350;29;20057;-78
2024/02/29 06:06:44;;;;;;;50.00;28.70;;;;;;;5.12;77.44;96715.00;4897914;29;20059;-78
2024/02/29 06:09:14;;;;;;;57.67;29.17;;;;;;;5.11;78.03;96706.38;4897871;29;20059;-78
2024/02/29 06:11:42;;;;;;;54.53;29.33;;;;;;;5.09;78.11;96707.50;4897589;29;20058;-78
2024/02/29 06:14:10;;;;;;;51.47;27.85;;;;;;;5.03;77.60;96700.31;4897853;29;20056;-78
2024/02/29 06:16:38;;;;;;;62.85;30.23;;;;;;;4.99;78.30;96702.41;4897925;29;20052;-78
2024/02/29 06:19:05;;;;;;;59.30;29.17;;;;;;;4.96;77.55;96702.66;4897670;29;20226;-78
2024/02/29 06:21:33;;;;;;;53.00;28.38;;;;;;;4.92;77.17;96707.31;4897967;29;20048;-78
2024/02/29 06:24:03;;;;;;;54.13;28.38;;;;;;;4.89;77.77;96707.59;4897782;29;20123;-78
2024/02/29 06:26:30;;;;;;;52.35;27.77;;;;;;;4.90;77.06;96704.06;4897916;29;20107;-78
2024/02/29 06:28:58;;;;;;;57.58;26.92;;;;;;;4.90;77.10;96700.69;4897698;29;20083;-78
2024/02/29 06:31:26;;;;;;;48.15;26.90;;;;;;;4.92;77.32;96702.16;4897494;29;20520;-78
2024/02/29 06:33:54;;;;;;;57.67;30.27;;;;;;;4.95;77.46;96704.44;4897799;29;20139;-78
2024/02/29 06:36:21;;;;;;;44.90;23.52;;;;;;;4.97;77.39;96703.50;4897510;29;20095;-78
2024/02/29 06:38:49;;;;;;;53.67;28.25;;;;;;;4.99;77.12;96699.81;4897658;29;20053;-78
2024/02/29 06:41:18;;;;;;;52.45;26.40;;;;;;;5.04;77.17;96704.53;4897681;29;20084;-78
2024/02/29 06:43:46;;;;;;;61.40;28.20;;;;;;;5.06;76.72;96692.28;4897311;29;20056;-78
2024/02/29 06:46:13;;;;;;;53.92;27.65;;;;;;;5.04;76.35;96694.19;4897380;29;20096;-78
2024/02/29 06:48:41;;;;;;;51.70;27.88;;;;;;;5.01;76.21;96694.47;4897856;29;20056;-78
2024/02/29 06:51:09;;;;;;;50.50;27.23;;;;;;;5.03;76.54;96687.38;4897441;29;20509;-78
2024/02/29 06:53:36;;;;;;;53.17;25.95;;;;;;;5.04;76.13;96689.03;4897840;29;20402;-78
2024/02/29 06:56:04;;;;;;;51.55;28.05;;;;;;;5.03;76.14;96687.38;4897249;29;20080;-78
2024/02/29 06:58:35;;;;;;;50.80;26.15;;;;;;;5.04;75.79;96696.78;4897487;29;20452;-78
2024/02/29 07:01:04;;;;;;;52.72;27.17;;;;;;;5.04;76.27;96689.03;4949072;23;20330;-80
2024/02/29 07:03:34;;;;;;;52.17;26.73;;;;;;;5.06;75.99;96682.75;4916027;29;20062;-80
2024/02/29 07:06:04;;;;;;;53.72;28.17;;;;;;;5.08;75.67;96687.78;4915605;29;20477;-79
2024/02/29 07:08:34;;;;;;;52.80;27.88;;;;;;;5.09;76.73;96679.88;4916093;29;20194;-79
2024/02/29 07:11:03;;;;;;;59.13;30.10;;;;;;;5.13;76.64;96681.22;4916204;29;20048;-80
2024/02/29 07:13:31;;;;;;;52.47;28.67;;;;;;;5.12;76.09;96682.19;4916303;29;20484;-79
2024/02/29 07:16:00;;;;;;;53.63;28.50;;;;;;;5.09;75.93;96679.06;4915936;29;20108;-80
2024/02/29 07:18:28;;;;;;;52.03;29.17;;;;;;;5.03;75.97;96677.03;4916003;29;20139;-81
2024/02/29 07:20:55;;;;;;;53.28;27.17;;;;;;;5.04;75.88;96673.53;4919566;29;20044;-81
2024/02/29 07:23:24;;;;;;;54.50;28.80;;;;;;;5.05;76.49;96669.97;4928196;29;20079;-81
2024/02/29 07:25:52;;;;;;;51.50;27.58;;;;;;;5.09;76.33;96660.97;4915760;29;20064;-80
2024/02/29 07:28:19;;;;;;;50.70;27.13;;;;;;;5.12;76.14;96658.09;4919260;29;20110;-80
2024/02/29 07:30:47;;;;;;;52.90;27.92;;;;;;;5.12;76.02;96656.31;4918958;29;20131;-80
2024/02/29 07:33:16;;;;;;;52.83;28.85;;;;;;;5.17;76.26;96658.47;4919244;29;20519;-79
2024/02/29 07:35:43;;;;;;;51.38;28.00;;;;;;;5.23;75.85;96657.88;4918917;29;20083;-80
2024/02/29 07:38:11;;;;;;;51.45;26.92;;;;;;;5.29;75.78;96654.72;4919459;29;20131;-80
2024/02/29 07:40:39;;;;;;;58.72;30.13;;;;;;;5.39;76.48;96651.25;4919243;29;20477;-79
2024/02/29 07:43:06;;;;;;;57.58;29.70;;;;;;;5.48;76.14;96655.53;4919247;29;20076;-79
2024/02/29 07:45:36;;;;;;;48.03;27.65;;;;;;;5.57;75.87;96645.09;4920559;29;20052;-80
2024/02/29 07:48:04;;;;;;;46.92;25.38;;;;;;;5.72;75.93;96658.31;4920416;29;20060;-80
2024/02/29 07:50:33;;;;;;;49.30;27.80;;;;;;;5.89;75.21;96645.50;4918987;29;20079;-80
2024/02/29 07:53:00;;;;;;;50.63;27.85;;;;;;;6.02;74.99;96648.53;4919035;29;20052;-80
2024/02/29 07:55:28;;;;;;;49.83;28.20;;;;;;;6.19;75.00;96652.03;4918703;29;20572;-80
2024/02/29 07:57:56;;;;;;;47.20;26.38;;;;;;;6.41;75.22;96648.13;4918941;29;20075;-80
2024/02/29 08:00:24;;;;;;;44.97;25.95;;;;;;;6.66;74.94;96649.03;4919105;29;20056;-79
2024/02/29 08:02:52;;;;;;;53.65;26.42;;;;;;;6.88;73.60;96645.06;4918593;29;20075;-80
2024/02/29 08:05:20;;;;;;;44.15;25.50;;;;;;;7.15;73.26;96635.38;4918810;29;20052;-80
2024/02/29 08:07:49;;;;;;;44.63;24.58;;;;;;;7.36;71.76;96637.53;4918655;29;20092;-80
2024/02/29 08:10:17;;;;;;;47.08;25.98;;;;;;;7.52;71.49;96626.34;4919003;29;20150;-80
2024/02/29 08:12:45;;;;;;;43.80;25.02;;;;;;;7.70;70.90;96629.63;4918543;29;20052;-80
2024/02/29 08:15:14;;;;;;;42.97;25.90;;;;;;;7.89;70.11;96628.44;4921112;29;20505;-80
2024/02/29 08:17:42;;;;;;;45.17;26.05;;;;;;;8.11;70.46;96627.00;4925909;29;20055;-80
2024/02/29 08:20:10;;;;;;;43.95;25.88;;;;;;;8.35;72.10;96626.13;4918461;29;20058;-80
2024/02/29 08:22:39;;;;;;;40.10;24.80;;;;;;;8.57;69.98;96626.38;4918583;29;20352;-80
2024/02/29 08:25:09;;;;;;;43.63;25.10;;;;;;;8.83;70.93;96626.09;4918470;29;20188;-79
2024/02/29 08:27:37;;;;;;;39.90;24.13;;;;;;;9.10;68.09;96611.03;4919009;29;20510;-80
2024/02/29 08:30:06;;;;;;;36.70;23.85;;;;;;;9.35;66.51;96615.06;4918722;29;20052;-80
2024/02/29 08:32:34;;;;;;;41.47;24.77;;;;;;;9.63;68.17;96612.75;4918615;29;20052;-80
2024/02/29 08:35:02;;;;;;;43.15;26.65;;;;;;;9.87;67.10;96609.13;4918428;29;20056;-80
2024/02/29 08:37:42;;;;;;;42.60;25.80;;;;;;;10.10;63.49;96603.88;4919717;29;20497;-82
2024/02/29 08:40:12;;;;;;;40.22;25.15;;;;;;;10.35;63.05;96606.25;4918452;29;20059;-80
2024/02/29 08:42:40;;;;;;;43.92;25.70;;;;;;;10.64;62.37;96604.59;4918188;29;20048;-80
2024/02/29 08:45:09;;;;;;;41.20;26.02;;;;;;;10.87;61.38;96602.69;4918820;29;20055;-80
2024/02/29 08:47:37;;;;;;;39.75;24.90;;;;;;;11.07;60.99;96605.50;4919310;29;20461;-80
2024/02/29 08:50:05;;;;;;;40.15;27.02;;;;;;;11.29;60.07;96602.94;4940043;29;20040;-80
2024/02/29 08:52:33;;;;;;;45.50;26.67;;;;;;;11.52;59.40;96595.72;4942009;29;20076;-80
2024/02/29 08:55:01;;;;;;;39.85;26.70;;;;;;;11.72;59.35;96593.28;4941491;29;20091;-80
2024/02/29 08:57:30;;;;;;;39.20;25.85;;;;;;;11.86;59.41;96588.94;4941190;29;20048;-80
2024/02/29 08:59:58;;;;;;;41.42;26.27;;;;;;;12.01;59.76;96594.13;4937254;29;20056;-80
2024/02/29 09:02:26;;;;;;;40.90;25.50;;;;;;;12.11;57.50;96591.16;4919359;29;20496;-80
2024/02/29 09:04:53;;;;;;;37.22;23.90;;;;;;;12.14;56.80;96593.41;4918343;29;20075;-80
2024/02/29 09:07:21;;;;;;;38.22;23.50;;;;;;;12.22;57.25;96587.19;4918400;29;20059;-80
2024/02/29 09:09:50;;;;;;;36.17;23.17;;;;;;;12.27;56.43;96585.63;4918107;29;20067;-80
2024/02/29 09:12:18;;;;;;;35.78;23.63;;;;;;;12.26;56.11;96578.78;4919290;29;20104;-80
2024/02/29 09:14:48;;;;;;;39.00;24.10;;;;;;;12.36;55.09;96579.25;4918530;29;20048;-80
2024/02/29 09:17:15;;;;;;;35.30;22.77;;;;;;;12.52;55.23;96577.31;4918421;29;20056;-80
2024/02/29 09:19:43;;;;;;;33.17;22.40;;;;;;;12.69;55.96;96573.34;4918228;29;20052;-79
2024/02/29 09:22:11;;;;;;;37.72;23.10;;;;;;;12.88;54.35;96565.75;4918965;29;20052;-80
2024/02/29 09:24:38;;;;;;;36.83;22.38;;;;;;;13.04;54.22;96570.66;4918459;29;20052;-80
2024/02/29 09:27:06;;;;;;;35.58;22.23;;;;;;;13.10;52.81;96564.63;4918695;29;20048;-80
2024/02/29 09:29:34;;;;;;;33.75;21.30;;;;;;;13.06;52.70;96555.53;4929580;29;20052;-80
2024/02/29 09:32:06;;;;;;;36.72;22.80;;;;;;;13.13;53.04;96555.56;4922151;29;20120;-82
2024/02/29 09:34:37;;;;;;;34.63;23.35;;;;;;;13.26;52.40;96560.03;4917593;29;20496;-82
2024/02/29 09:37:09;;;;;;;37.33;22.73;;;;;;;13.32;51.86;96546.97;4917184;29;20083;-83
2024/02/29 09:39:38;;;;;;;35.25;22.30;;;;;;;13.43;51.78;96547.38;4917854;29;20044;-82
2024/02/29 09:42:09;;;;;;;34.30;23.50;;;;;;;13.56;51.61;96548.19;4917502;29;20071;-83
2024/02/29 09:44:43;;;;;;;35.17;21.55;;;;;;;13.75;50.93;96545.75;4917286;29;20075;-82
2024/02/29 09:47:14;;;;;;;30.70;20.25;;;;;;;13.87;49.95;96543.31;4917709;29;20055;-83
2024/02/29 09:49:43;;;;;;;35.17;21.88;;;;;;;13.97;50.10;96536.66;4917943;29;20044;-79
2024/02/29 09:52:16;;;;;;;31.63;21.63;;;;;;;14.13;49.47;96537.22;4917997;29;20056;-82
2024/02/29 09:54:46;;;;;;;31.60;20.77;;;;;;;14.29;49.17;96536.78;4918078;29;20525;-81
2024/02/29 09:57:15;;;;;;;26.80;17.75;;;;;;;14.40;47.96;96528.25;4918073;29;20056;-80
2024/02/29 09:59:44;;;;;;;25.00;16.05;;;;;;;14.47;47.53;96535.31;4918251;29;20056;-80
2024/02/29 10:02:16;;;;;;;21.20;13.30;;;;;;;14.63;47.39;96525.16;4918051;29;20056;-80
2024/02/29 10:04:46;;;;;;;16.17;10.93;;;;;;;14.80;46.24;96522.88;4917560;29;20147;-80
2024/02/29 10:07:15;;;;;;;18.17;12.95;;;;;;;15.03;45.66;96516.28;4917728;29;20415;-80
2024/02/29 10:09:44;;;;;;;16.02;12.07;;;;;;;15.18;45.04;96503.66;4918269;29;20483;-80
2024/02/29 10:12:17;;;;;;;13.20;10.25;;;;;;;15.34;43.27;96506.78;4927466;29;20134;-81
2024/02/29 10:14:46;;;;;;;15.57;10.63;;;;;;;15.53;45.55;96505.81;4927214;29;20048;-81
2024/02/29 10:17:16;;;;;;;13.65;9.65;;;;;;;15.80;43.44;96506.41;4922753;29;20051;-81
2024/02/29 10:19:45;;;;;;;16.17;10.68;;;;;;;16.07;42.60;96500.88;4917765;29;20052;-81
2024/02/29 10:22:20;;;;;;;14.00;10.15;;;;;;;16.17;42.86;96506.44;4917630;29;20058;-81
2024/02/29 10:24:52;;;;;;;14.48;10.57;;;;;;;16.40;41.19;96504.97;4917708;29;20564;-80
2024/02/29 10:27:24;;;;;;;12.48;9.82;;;;;;;16.54;42.22;96500.34;4917859;29;20173;-81
2024/02/29 10:29:52;;;;;;;15.17;10.23;;;;;;;16.66;41.73;96498.56;4918193;29;20102;-80
2024/02/29 10:32:22;;;;;;;14.90;10.70;;;;;;;16.88;41.85;96498.94;4917923;29;20432;-80
2024/02/29 10:34:51;;;;;;;14.27;10.38;;;;;;;17.21;41.95;96492.38;4917988;29;20062;-81
2024/02/29 10:37:22;;;;;;;14.93;9.85;;;;;;;17.41;39.11;96492.84;4917624;29;20055;-81
2024/02/29 10:39:51;;;;;;;14.32;10.88;;;;;;;17.48;40.08;96496.19;4917966;29;20056;-81
2024/02/29 10:42:22;;;;;;;16.38;10.90;;;;;;;17.67;39.63;96483.69;4917615;29;20469;-80
2024/02/29 10:44:53;;;;;;;15.00;10.70;;;;;;;17.90;43.28;96484.75;4917127;29;20103;-81
2024/02/29 10:47:25;;;;;;;16.13;11.57;;;;;;;18.15;40.96;96486.31;4917841;29;20104;-81
2024/02/29 10:50:04;;;;;;;14.35;9.88;;;;;;;18.21;40.83;96490.66;4917849;29;20058;-81
2024/02/29 10:52:35;;;;;;;17.38;11.25;;;;;;;18.23;37.97;96475.41;4917687;29;20142;-81
2024/02/29 10:55:06;;;;;;;17.83;11.70;;;;;;;18.40;37.89;96459.63;4917750;29;20092;-80
2024/02/29 10:57:51;;;;;;;15.48;10.25;;;;;;;18.63;39.59;96464.84;4917837;29;20512;-80
2024/02/29 11:00:22;;;;;;;16.45;11.48;;;;;;;18.59;37.34;96458.41;4917769;29;20068;-80
2024/02/29 11:02:54;;;;;;;16.33;11.35;;;;;;;18.56;37.06;96458.88;4920532;29;20056;-80
2024/02/29 11:05:26;;;;;;;18.05;11.70;;;;;;;18.76;37.24;96447.91;4921449;29;20079;-81
2024/02/29 11:07:55;;;;;;;17.05;11.55;;;;;;;19.06;37.99;96446.84;4921714;29;20051;-81
2024/02/29 11:10:24;;;;;;;19.20;12.50;;;;;;;19.19;36.35;96451.00;4921213;29;20052;-81
2024/02/29 11:12:57;;;;;;;15.27;11.65;;;;;;;19.32;39.14;96440.91;4921596;29;20099;-80
2024/02/29 11:15:26;;;;;;;17.17;11.77;;;;;;;19.43;35.75;96433.94;4921644;29;20083;-80
2024/02/29 11:17:57;;;;;;;16.55;12.15;;;;;;;19.25;35.30;96434.97;4921096;29;20111;-81
2024/02/29 11:20:27;;;;;;;17.80;12.65;;;;;;;18.86;36.28;96426.94;4920854;29;20524;-81
2024/02/29 11:23:05;;;;;;;18.20;12.17;;;;;;;18.49;36.94;96427.31;4921615;29;20106;-81
2024/02/29 11:25:42;;;;;;;14.93;10.70;;;;;;;18.16;38.64;96419.28;4920661;29;20285;-81
2024/02/29 11:28:11;;;;;;;19.83;12.43;;;;;;;17.76;38.30;96418.19;4920897;29;20063;-81
2024/02/29 11:30:42;;;;;;;18.17;12.70;;;;;;;17.51;41.83;96418.44;4920480;29;20048;-81